sensor_id;sensor_type;location;lat;lon;timestamp;pressure;altitude;pressure_sealevel;temperature;humidity
24234;BME280;12365;43.554;1.388;2022-09-20T00:00:13;100053.06;;;18.22;35.07
24234;BME280;12365;43.554;1.388;2022-09-20T00:02:39;100053.78;;;18.14;35.17
24234;BME280;12365;43.554;1.388;2022-09-20T00:05:05;100055.47;;;18.11;35.20
24234;BME280;12365;43.554;1.388;2022-09-20T00:07:32;100063.34;;;18.09;35.31
24234;BME280;12365;43.554;1.388;2022-09-20T00:09:57;100047.44;;;18.06;35.28
24234;BME280;12365;43.554;1.388;2022-09-20T00:12:23;100050.03;;;18.05;35.41
24234;BME280;12365;43.554;1.388;2022-09-20T00:14:48;100057.94;;;18.03;35.59
24234;BME280;12365;43.554;1.388;2022-09-20T00:17:14;100057.84;;;18.00;35.72
24234;BME280;12365;43.554;1.388;2022-09-20T00:19:39;100056.09;;;17.99;35.70
24234;BME280;12365;43.554;1.388;2022-09-20T00:22:05;100057.72;;;17.94;35.75
24234;BME280;12365;43.554;1.388;2022-09-20T00:24:30;100054.19;;;17.93;35.80
24234;BME280;12365;43.554;1.388;2022-09-20T00:26:55;100049.75;;;17.91;35.87
24234;BME280;12365;43.554;1.388;2022-09-20T00:29:21;100060.25;;;17.88;35.90
24234;BME280;12365;43.554;1.388;2022-09-20T00:31:46;100053.09;;;17.84;35.98
24234;BME280;12365;43.554;1.388;2022-09-20T00:34:12;100056.47;;;17.78;36.12
24234;BME280;12365;43.554;1.388;2022-09-20T00:36:56;100055.34;;;17.68;36.19
24234;BME280;12365;43.554;1.388;2022-09-20T00:39:21;100071.94;;;17.63;36.42
24234;BME280;12365;43.554;1.388;2022-09-20T00:41:47;100070.81;;;17.53;36.53
24234;BME280;12365;43.554;1.388;2022-09-20T00:47:41;100066.94;;;17.39;36.75
24234;BME280;12365;43.554;1.388;2022-09-20T00:50:27;100074.69;;;17.32;36.87
24234;BME280;12365;43.554;1.388;2022-09-20T00:52:57;100077.22;;;17.28;37.05
24234;BME280;12365;43.554;1.388;2022-09-20T00:55:25;100071.94;;;17.28;37.13
24234;BME280;12365;43.554;1.388;2022-09-20T00:57:51;100071.91;;;17.26;37.17
24234;BME280;12365;43.554;1.388;2022-09-20T01:00:17;100071.06;;;17.27;37.35
24234;BME280;12365;43.554;1.388;2022-09-20T01:02:50;100066.72;;;17.29;37.48
24234;BME280;12365;43.554;1.388;2022-09-20T01:05:17;100080.72;;;17.27;37.61
24234;BME280;12365;43.554;1.388;2022-09-20T01:07:45;100066.63;;;17.26;37.89
24234;BME280;12365;43.554;1.388;2022-09-20T01:10:11;100073.63;;;17.24;37.90
24234;BME280;12365;43.554;1.388;2022-09-20T01:12:37;100075.34;;;17.24;37.87
24234;BME280;12365;43.554;1.388;2022-09-20T01:15:07;100070.06;;;17.22;37.97
24234;BME280;12365;43.554;1.388;2022-09-20T01:17:35;100076.13;;;17.20;38.26
24234;BME280;12365;43.554;1.388;2022-09-20T01:25:58;100082.97;;;17.13;38.59
24234;BME280;12365;43.554;1.388;2022-09-20T01:28:15;100080.28;;;17.10;38.53
24234;BME280;12365;43.554;1.388;2022-09-20T01:33:46;100088.09;;;17.07;38.63
24234;BME280;12365;43.554;1.388;2022-09-20T01:36:22;100088.78;;;17.00;38.73
24234;BME280;12365;43.554;1.388;2022-09-20T01:39:12;100083.38;;;16.95;38.85
24234;BME280;12365;43.554;1.388;2022-09-20T01:41:47;100093.78;;;16.89;38.79
24234;BME280;12365;43.554;1.388;2022-09-20T01:44:22;100087.50;;;16.85;38.93
24234;BME280;12365;43.554;1.388;2022-09-20T01:47:01;100087.34;;;16.79;39.25
24234;BME280;12365;43.554;1.388;2022-09-20T01:49:40;100085.50;;;16.77;39.26
24234;BME280;12365;43.554;1.388;2022-09-20T01:58:00;100091.31;;;16.65;39.37
24234;BME280;12365;43.554;1.388;2022-09-20T02:03:33;100085.75;;;16.56;39.33
24234;BME280;12365;43.554;1.388;2022-09-20T02:06:22;100096.22;;;16.53;39.60
24234;BME280;12365;43.554;1.388;2022-09-20T02:09:44;100087.34;;;16.49;39.54
24234;BME280;12365;43.554;1.388;2022-09-20T02:17:37;100088.66;;;16.35;39.84
24234;BME280;12365;43.554;1.388;2022-09-20T02:20:14;100086.75;;;16.29;39.80
24234;BME280;12365;43.554;1.388;2022-09-20T02:22:57;100080.53;;;16.25;39.98
24234;BME280;12365;43.554;1.388;2022-09-20T02:26:20;100084.78;;;16.22;39.92
24234;BME280;12365;43.554;1.388;2022-09-20T02:31:56;100078.34;;;16.12;40.07
24234;BME280;12365;43.554;1.388;2022-09-20T02:42:28;100068.22;;;15.96;40.22
24234;BME280;12365;43.554;1.388;2022-09-20T02:47:39;100074.22;;;15.92;40.54
24234;BME280;12365;43.554;1.388;2022-09-20T02:53:40;100074.81;;;15.83;40.66
24234;BME280;12365;43.554;1.388;2022-09-20T02:56:10;100075.53;;;15.77;40.57
24234;BME280;12365;43.554;1.388;2022-09-20T02:58:41;100079.78;;;15.74;40.83
24234;BME280;12365;43.554;1.388;2022-09-20T03:03:54;100082.69;;;15.56;40.96
24234;BME280;12365;43.554;1.388;2022-09-20T03:06:49;100074.53;;;15.48;41.07
24234;BME280;12365;43.554;1.388;2022-09-20T03:17:55;100087.28;;;15.36;41.45
24234;BME280;12365;43.554;1.388;2022-09-20T03:20:40;100082.88;;;15.35;41.26
24234;BME280;12365;43.554;1.388;2022-09-20T03:29:04;100083.94;;;15.40;41.67
24234;BME280;12365;43.554;1.388;2022-09-20T03:31:51;100089.28;;;15.43;41.64
24234;BME280;12365;43.554;1.388;2022-09-20T03:47:47;100083.59;;;15.31;42.35
24234;BME280;12365;43.554;1.388;2022-09-20T03:50:41;100087.09;;;15.30;42.35
24234;BME280;12365;43.554;1.388;2022-09-20T03:56:14;100086.75;;;15.21;42.36
24234;BME280;12365;43.554;1.388;2022-09-20T03:59:29;100088.34;;;15.15;42.68
24234;BME280;12365;43.554;1.388;2022-09-20T04:04:59;100083.72;;;15.08;42.68
24234;BME280;12365;43.554;1.388;2022-09-20T04:07:54;100079.22;;;15.04;43.14
24234;BME280;12365;43.554;1.388;2022-09-20T04:21:38;100100.84;;;14.97;43.29
24234;BME280;12365;43.554;1.388;2022-09-20T04:24:18;100099.00;;;14.94;43.43
24234;BME280;12365;43.554;1.388;2022-09-20T04:26:50;100105.94;;;14.92;43.48
24234;BME280;12365;43.554;1.388;2022-09-20T04:34:45;100103.03;;;14.85;43.87
24234;BME280;12365;43.554;1.388;2022-09-20T04:37:32;100101.13;;;14.81;43.95
24234;BME280;12365;43.554;1.388;2022-09-20T04:40:08;100102.84;;;14.79;44.04
24234;BME280;12365;43.554;1.388;2022-09-20T05:03:00;100110.63;;;14.53;44.42
24234;BME280;12365;43.554;1.388;2022-09-20T05:08:27;100119.09;;;14.46;44.51
24234;BME280;12365;43.554;1.388;2022-09-20T05:22:40;100114.38;;;14.37;44.66
24234;BME280;12365;43.554;1.388;2022-09-20T05:28:10;100118.53;;;14.30;44.73
24234;BME280;12365;43.554;1.388;2022-09-20T05:30:42;100127.22;;;14.29;44.69
24234;BME280;12365;43.554;1.388;2022-09-20T05:52:31;100140.63;;;14.37;44.77
24234;BME280;12365;43.554;1.388;2022-09-20T05:55:27;100145.09;;;14.40;44.79
24234;BME280;12365;43.554;1.388;2022-09-20T05:58:15;100151.38;;;14.43;44.80
24234;BME280;12365;43.554;1.388;2022-09-20T06:01:32;100143.66;;;14.48;44.85
24234;BME280;12365;43.554;1.388;2022-09-20T06:07:07;100140.53;;;14.57;44.84
24234;BME280;12365;43.554;1.388;2022-09-20T06:09:44;100147.63;;;14.59;44.83
24234;BME280;12365;43.554;1.388;2022-09-20T06:22:49;100165.66;;;14.97;44.87
24234;BME280;12365;43.554;1.388;2022-09-20T06:25:30;100159.03;;;15.08;44.77
24234;BME280;12365;43.554;1.388;2022-09-20T06:30:33;100158.78;;;15.26;44.42
24234;BME280;12365;43.554;1.388;2022-09-20T06:35:36;100162.44;;;15.55;44.37
24234;BME280;12365;43.554;1.388;2022-09-20T06:38:34;100166.66;;;15.75;44.34
24234;BME280;12365;43.554;1.388;2022-09-20T06:41:22;100166.31;;;15.92;43.74
24234;BME280;12365;43.554;1.388;2022-09-20T06:43:53;100167.66;;;16.06;43.58
24234;BME280;12365;43.554;1.388;2022-09-20T06:46:22;100172.53;;;16.21;43.46
24234;BME280;12365;43.554;1.388;2022-09-20T06:48:48;100167.66;;;16.33;43.47
24234;BME280;12365;43.554;1.388;2022-09-20T06:51:15;100172.44;;;16.46;43.13
24234;BME280;12365;43.554;1.388;2022-09-20T06:53:41;100170.25;;;16.62;43.16
24234;BME280;12365;43.554;1.388;2022-09-20T06:56:08;100170.63;;;16.74;42.88
24234;BME280;12365;43.554;1.388;2022-09-20T06:58:38;100180.69;;;16.87;42.70
24234;BME280;12365;43.554;1.388;2022-09-20T07:01:04;100183.78;;;17.03;42.66
24234;BME280;12365;43.554;1.388;2022-09-20T07:03:29;100179.78;;;17.17;42.44
24234;BME280;12365;43.554;1.388;2022-09-20T07:05:56;100184.50;;;17.29;42.33
24234;BME280;12365;43.554;1.388;2022-09-20T07:08:22;100180.41;;;17.40;42.16
24234;BME280;12365;43.554;1.388;2022-09-20T07:10:47;100176.44;;;17.56;41.94
24234;BME280;12365;43.554;1.388;2022-09-20T07:13:13;100173.22;;;17.68;41.69
24234;BME280;12365;43.554;1.388;2022-09-20T07:15:38;100184.31;;;17.88;41.51
24234;BME280;12365;43.554;1.388;2022-09-20T07:18:04;100182.88;;;18.02;41.45
24234;BME280;12365;43.554;1.388;2022-09-20T07:20:29;100177.97;;;18.17;41.28
24234;BME280;12365;43.554;1.388;2022-09-20T07:22:54;100189.72;;;18.30;41.21
24234;BME280;12365;43.554;1.388;2022-09-20T07:25:20;100192.69;;;18.44;40.83
24234;BME280;12365;43.554;1.388;2022-09-20T07:27:48;100193.84;;;18.57;40.69
24234;BME280;12365;43.554;1.388;2022-09-20T07:30:14;100193.03;;;18.59;40.41
24234;BME280;12365;43.554;1.388;2022-09-20T07:32:40;100191.34;;;18.63;40.47
24234;BME280;12365;43.554;1.388;2022-09-20T07:35:07;100188.75;;;18.65;40.39
24234;BME280;12365;43.554;1.388;2022-09-20T07:37:34;100196.16;;;18.81;40.07
24234;BME280;12365;43.554;1.388;2022-09-20T07:39:59;100198.13;;;18.91;40.12
24234;BME280;12365;43.554;1.388;2022-09-20T07:42:25;100193.84;;;18.96;39.86
24234;BME280;12365;43.554;1.388;2022-09-20T07:44:50;100193.16;;;19.05;39.78
24234;BME280;12365;43.554;1.388;2022-09-20T07:47:17;100196.13;;;19.22;39.84
24234;BME280;12365;43.554;1.388;2022-09-20T07:49:42;100193.66;;;19.31;39.69
24234;BME280;12365;43.554;1.388;2022-09-20T07:52:09;100193.00;;;19.44;39.59
24234;BME280;12365;43.554;1.388;2022-09-20T07:54:35;100200.34;;;19.59;39.29
24234;BME280;12365;43.554;1.388;2022-09-20T07:57:00;100199.75;;;19.73;39.23
24234;BME280;12365;43.554;1.388;2022-09-20T07:59:27;100197.34;;;19.86;39.13
24234;BME280;12365;43.554;1.388;2022-09-20T08:01:52;100201.81;;;19.90;38.96
24234;BME280;12365;43.554;1.388;2022-09-20T08:04:17;100200.19;;;20.00;38.70
24234;BME280;12365;43.554;1.388;2022-09-20T08:06:44;100199.47;;;20.09;38.92
24234;BME280;12365;43.554;1.388;2022-09-20T08:09:10;100203.13;;;20.17;38.74
24234;BME280;12365;43.554;1.388;2022-09-20T08:11:36;100211.25;;;20.28;38.29
24234;BME280;12365;43.554;1.388;2022-09-20T08:14:03;100206.13;;;20.39;38.40
24234;BME280;12365;43.554;1.388;2022-09-20T08:16:30;100201.81;;;20.47;38.28
24234;BME280;12365;43.554;1.388;2022-09-20T08:19:00;100204.69;;;20.59;38.04
24234;BME280;12365;43.554;1.388;2022-09-20T08:21:30;100208.34;;;20.67;37.93
24234;BME280;12365;43.554;1.388;2022-09-20T08:23:56;100209.34;;;20.78;37.66
24234;BME280;12365;43.554;1.388;2022-09-20T08:26:23;100216.56;;;20.87;37.73
24234;BME280;12365;43.554;1.388;2022-09-20T08:28:54;100207.03;;;21.03;37.50
24234;BME280;12365;43.554;1.388;2022-09-20T08:31:21;100210.81;;;21.24;37.49
24234;BME280;12365;43.554;1.388;2022-09-20T08:33:47;100215.31;;;21.31;37.27
24234;BME280;12365;43.554;1.388;2022-09-20T08:36:17;100212.81;;;21.41;37.29
24234;BME280;12365;43.554;1.388;2022-09-20T08:38:43;100215.50;;;21.43;36.72
24234;BME280;12365;43.554;1.388;2022-09-20T08:41:22;100217.31;;;21.47;36.95
24234;BME280;12365;43.554;1.388;2022-09-20T08:43:55;100215.66;;;21.58;36.73
24234;BME280;12365;43.554;1.388;2022-09-20T08:46:26;100223.78;;;21.75;36.79
24234;BME280;12365;43.554;1.388;2022-09-20T08:48:54;100219.53;;;21.94;36.30
24234;BME280;12365;43.554;1.388;2022-09-20T08:51:20;100220.47;;;22.01;36.27
24234;BME280;12365;43.554;1.388;2022-09-20T08:53:52;100224.06;;;22.06;36.25
24234;BME280;12365;43.554;1.388;2022-09-20T08:56:19;100217.88;;;22.08;36.15
24234;BME280;12365;43.554;1.388;2022-09-20T08:58:45;100218.81;;;22.15;35.97
24234;BME280;12365;43.554;1.388;2022-09-20T09:01:20;100226.91;;;22.24;35.74
24234;BME280;12365;43.554;1.388;2022-09-20T09:03:46;100226.06;;;22.32;35.63
24234;BME280;12365;43.554;1.388;2022-09-20T09:06:18;100206.66;;;22.43;35.62
24234;BME280;12365;43.554;1.388;2022-09-20T09:08:44;100220.09;;;22.71;35.32
24234;BME280;12365;43.554;1.388;2022-09-20T09:11:17;100213.13;;;22.91;35.22
24234;BME280;12365;43.554;1.388;2022-09-20T09:14:01;100218.53;;;22.99;34.96
24234;BME280;12365;43.554;1.388;2022-09-20T09:16:32;100218.53;;;23.02;34.81
24234;BME280;12365;43.554;1.388;2022-09-20T09:19:24;100210.59;;;23.19;34.62
24234;BME280;12365;43.554;1.388;2022-09-20T09:21:56;100207.09;;;23.34;34.49
24234;BME280;12365;43.554;1.388;2022-09-20T09:24:21;100219.59;;;23.55;34.42
24234;BME280;12365;43.554;1.388;2022-09-20T09:26:48;100206.28;;;23.61;34.08
24234;BME280;12365;43.554;1.388;2022-09-20T09:29:19;100208.09;;;23.74;34.02
24234;BME280;12365;43.554;1.388;2022-09-20T09:31:47;100210.78;;;23.88;33.95
24234;BME280;12365;43.554;1.388;2022-09-20T09:36:48;100208.09;;;24.17;33.47
24234;BME280;12365;43.554;1.388;2022-09-20T09:39:16;100207.22;;;24.29;33.12
24234;BME280;12365;43.554;1.388;2022-09-20T09:41:46;100207.19;;;24.41;33.15
24234;BME280;12365;43.554;1.388;2022-09-20T09:44:23;100199.19;;;24.52;32.84
24234;BME280;12365;43.554;1.388;2022-09-20T09:46:49;100203.63;;;24.62;32.57
24234;BME280;12365;43.554;1.388;2022-09-20T09:49:16;100192.94;;;24.62;32.06
24234;BME280;12365;43.554;1.388;2022-09-20T09:54:32;100195.53;;;24.85;32.54
24234;BME280;12365;43.554;1.388;2022-09-20T09:57:11;100196.38;;;25.03;32.27
24234;BME280;12365;43.554;1.388;2022-09-20T10:22:13;100181.00;;;25.52;30.58
24234;BME280;12365;43.554;1.388;2022-09-20T10:30:11;100179.06;;;25.70;30.10
24234;BME280;12365;43.554;1.388;2022-09-20T10:38:12;100193.06;;;26.09;30.10
24234;BME280;12365;43.554;1.388;2022-09-20T10:43:37;100191.19;;;26.19;29.77
24234;BME280;12365;43.554;1.388;2022-09-20T10:48:46;100189.25;;;26.34;29.32
24234;BME280;12365;43.554;1.388;2022-09-20T10:51:38;100182.91;;;26.46;29.31
24234;BME280;12365;43.554;1.388;2022-09-20T11:08:33;100181.69;;;26.75;28.30
24234;BME280;12365;43.554;1.388;2022-09-20T11:16:56;100168.16;;;26.87;28.15
24234;BME280;12365;43.554;1.388;2022-09-20T11:22:22;100165.31;;;27.01;27.70
24234;BME280;12365;43.554;1.388;2022-09-20T11:24:53;100175.03;;;27.10;27.54
24234;BME280;12365;43.554;1.388;2022-09-20T11:27:51;100174.91;;;27.17;27.55
24234;BME280;12365;43.554;1.388;2022-09-20T11:30:20;100173.09;;;27.22;27.33
24234;BME280;12365;43.554;1.388;2022-09-20T11:38:21;100174.41;;;27.54;26.74
24234;BME280;12365;43.554;1.388;2022-09-20T11:41:18;100169.03;;;27.54;26.72
24234;BME280;12365;43.554;1.388;2022-09-20T11:43:45;100160.13;;;27.54;26.57
24234;BME280;12365;43.554;1.388;2022-09-20T11:46:25;100167.22;;;27.56;26.57
24234;BME280;12365;43.554;1.388;2022-09-20T11:49:03;100163.59;;;27.60;26.54
24234;BME280;12365;43.554;1.388;2022-09-20T11:52:01;100155.44;;;27.66;26.38
24234;BME280;12365;43.554;1.388;2022-09-20T11:55:16;100165.09;;;27.77;26.15
24234;BME280;12365;43.554;1.388;2022-09-20T11:57:19;100151.66;;;27.83;26.13
24234;BME280;12365;43.554;1.388;2022-09-20T11:59:55;100156.84;;;27.92;26.11
24234;BME280;12365;43.554;1.388;2022-09-20T12:04:59;100155.81;;;27.99;25.63
24234;BME280;12365;43.554;1.388;2022-09-20T12:07:34;100144.16;;;28.00;25.26
24234;BME280;12365;43.554;1.388;2022-09-20T12:10:03;100145.97;;;28.01;25.24
24234;BME280;12365;43.554;1.388;2022-09-20T12:12:42;100143.09;;;28.10;25.06
24234;BME280;12365;43.554;1.388;2022-09-20T12:26:02;100129.13;;;28.41;24.25
24234;BME280;12365;43.554;1.388;2022-09-20T12:28:43;100119.13;;;28.49;24.23
24234;BME280;12365;43.554;1.388;2022-09-20T12:39:21;100113.38;;;28.68;23.41
24234;BME280;12365;43.554;1.388;2022-09-20T12:41:53;100102.78;;;28.60;23.24
24234;BME280;12365;43.554;1.388;2022-09-20T12:46:57;100091.81;;;28.71;23.20
24234;BME280;12365;43.554;1.388;2022-09-20T13:11:19;100069.34;;;28.75;21.96
24234;BME280;12365;43.554;1.388;2022-09-20T13:14:05;100071.94;;;28.80;21.84
24234;BME280;12365;43.554;1.388;2022-09-20T13:16:56;100065.34;;;28.94;21.68
24234;BME280;12365;43.554;1.388;2022-09-20T13:19:26;100070.56;;;29.01;21.53
24234;BME280;12365;43.554;1.388;2022-09-20T13:22:01;100066.94;;;29.02;21.11
24234;BME280;12365;43.554;1.388;2022-09-20T13:24:32;100053.66;;;28.95;21.19
24234;BME280;12365;43.554;1.388;2022-09-20T13:27:05;100049.22;;;28.94;21.06
24234;BME280;12365;43.554;1.388;2022-09-20T13:29:40;100050.81;;;29.02;21.20
24234;BME280;12365;43.554;1.388;2022-09-20T13:40:20;100043.66;;;29.02;20.51
24234;BME280;12365;43.554;1.388;2022-09-20T13:42:47;100036.56;;;29.00;20.41
24234;BME280;12365;43.554;1.388;2022-09-20T13:45:13;100041.09;;;28.96;20.31
24234;BME280;12365;43.554;1.388;2022-09-20T13:47:47;100042.75;;;29.02;20.26
24234;BME280;12365;43.554;1.388;2022-09-20T13:50:33;100041.00;;;29.01;19.99
24234;BME280;12365;43.554;1.388;2022-09-20T13:53:01;100040.22;;;28.95;19.76
24234;BME280;12365;43.554;1.388;2022-09-20T13:55:36;100045.44;;;29.02;19.97
24234;BME280;12365;43.554;1.388;2022-09-20T13:58:07;100037.47;;;28.99;19.95
24234;BME280;12365;43.554;1.388;2022-09-20T14:00:45;100030.41;;;28.94;19.43
24234;BME280;12365;43.554;1.388;2022-09-20T14:03:16;100031.31;;;28.93;19.51
24234;BME280;12365;43.554;1.388;2022-09-20T14:06:03;100028.72;;;28.90;19.18
24234;BME280;12365;43.554;1.388;2022-09-20T14:08:40;100033.09;;;28.94;19.29
24234;BME280;12365;43.554;1.388;2022-09-20T14:13:42;100031.09;;;29.03;19.28
24234;BME280;12365;43.554;1.388;2022-09-20T14:16:09;100031.91;;;29.08;18.85
24234;BME280;12365;43.554;1.388;2022-09-20T14:18:35;100025.56;;;29.12;18.99
24234;BME280;12365;43.554;1.388;2022-09-20T14:21:06;100026.50;;;29.09;19.05
24234;BME280;12365;43.554;1.388;2022-09-20T14:23:54;100023.84;;;29.08;18.87
24234;BME280;12365;43.554;1.388;2022-09-20T14:32:00;100021.94;;;29.13;19.21
24234;BME280;12365;43.554;1.388;2022-09-20T14:34:28;100026.44;;;29.12;19.09
24234;BME280;12365;43.554;1.388;2022-09-20T14:37:04;100014.06;;;29.05;19.06
24234;BME280;12365;43.554;1.388;2022-09-20T14:39:30;100022.03;;;29.08;18.91
24234;BME280;12365;43.554;1.388;2022-09-20T14:41:56;100014.84;;;29.09;18.87
24234;BME280;12365;43.554;1.388;2022-09-20T14:44:31;100016.63;;;29.10;19.15
24234;BME280;12365;43.554;1.388;2022-09-20T14:46:58;100009.34;;;29.15;19.09
24234;BME280;12365;43.554;1.388;2022-09-20T14:51:50;100009.19;;;29.21;19.16
24234;BME280;12365;43.554;1.388;2022-09-20T14:54:23;100018.94;;;29.25;19.25
24234;BME280;12365;43.554;1.388;2022-09-20T14:56:50;100005.34;;;29.31;19.16
24234;BME280;12365;43.554;1.388;2022-09-20T14:59:18;100009.75;;;29.34;19.06
24234;BME280;12365;43.554;1.388;2022-09-20T15:04:20;99998.03;;;29.36;19.02
24234;BME280;12365;43.554;1.388;2022-09-20T15:06:50;100004.25;;;29.38;18.96
24234;BME280;12365;43.554;1.388;2022-09-20T15:09:17;99998.13;;;29.33;18.88
24234;BME280;12365;43.554;1.388;2022-09-20T15:11:43;100002.63;;;29.33;18.71
24234;BME280;12365;43.554;1.388;2022-09-20T15:14:08;100007.06;;;29.34;19.03
24234;BME280;12365;43.554;1.388;2022-09-20T15:16:34;99992.66;;;29.36;18.51
24234;BME280;12365;43.554;1.388;2022-09-20T15:18:59;99998.88;;;29.38;18.61
24234;BME280;12365;43.554;1.388;2022-09-20T15:21:25;99998.16;;;29.32;18.46
24234;BME280;12365;43.554;1.388;2022-09-20T15:23:51;99997.34;;;29.30;18.51
24234;BME280;12365;43.554;1.388;2022-09-20T15:26:19;99992.66;;;29.36;18.61
24234;BME280;12365;43.554;1.388;2022-09-20T15:28:45;99989.84;;;29.41;18.78
24234;BME280;12365;43.554;1.388;2022-09-20T15:31:10;99995.16;;;29.44;18.24
24234;BME280;12365;43.554;1.388;2022-09-20T15:33:37;100002.38;;;29.42;18.58
24234;BME280;12365;43.554;1.388;2022-09-20T15:36:03;99998.81;;;29.42;18.62
24234;BME280;12365;43.554;1.388;2022-09-20T15:38:29;99991.56;;;29.45;18.53
24234;BME280;12365;43.554;1.388;2022-09-20T15:40:54;99993.22;;;29.49;18.50
24234;BME280;12365;43.554;1.388;2022-09-20T15:43:22;100002.22;;;29.48;18.56
24234;BME280;12365;43.554;1.388;2022-09-20T15:46:00;99992.34;;;29.49;18.40
24234;BME280;12365;43.554;1.388;2022-09-20T15:48:40;99992.44;;;29.46;18.19
24234;BME280;12365;43.554;1.388;2022-09-20T15:51:08;99989.78;;;29.44;18.31
24234;BME280;12365;43.554;1.388;2022-09-20T15:53:46;99989.84;;;29.41;18.27
24234;BME280;12365;43.554;1.388;2022-09-20T15:56:21;99992.66;;;29.36;18.22
24234;BME280;12365;43.554;1.388;2022-09-20T15:58:51;100003.50;;;29.33;18.07
24234;BME280;12365;43.554;1.388;2022-09-20T16:01:24;99992.81;;;29.30;18.13
24234;BME280;12365;43.554;1.388;2022-09-20T16:03:51;99998.22;;;29.30;18.12
24234;BME280;12365;43.554;1.388;2022-09-20T16:06:17;99997.19;;;29.34;18.10
24234;BME280;12365;43.554;1.388;2022-09-20T16:08:43;100003.50;;;29.33;18.13
24234;BME280;12365;43.554;1.388;2022-09-20T16:11:12;100006.19;;;29.33;18.04
24234;BME280;12365;43.554;1.388;2022-09-20T16:13:37;100004.38;;;29.34;18.02
24234;BME280;12365;43.554;1.388;2022-09-20T16:16:03;100007.03;;;29.35;18.22
24234;BME280;12365;43.554;1.388;2022-09-20T16:18:29;100006.09;;;29.36;17.94
24234;BME280;12365;43.554;1.388;2022-09-20T16:21:16;100004.44;;;29.32;18.10
24234;BME280;12365;43.554;1.388;2022-09-20T16:23:47;100001.75;;;29.32;18.25
24234;BME280;12365;43.554;1.388;2022-09-20T16:26:12;99998.13;;;29.33;18.11
24234;BME280;12365;43.554;1.388;2022-09-20T16:28:42;100007.03;;;29.35;18.31
24234;BME280;12365;43.554;1.388;2022-09-20T16:31:46;100000.69;;;29.38;18.47
24234;BME280;12365;43.554;1.388;2022-09-20T16:34:27;100009.84;;;29.31;18.22
24234;BME280;12365;43.554;1.388;2022-09-20T16:39:24;100016.28;;;29.24;18.42
24234;BME280;12365;43.554;1.388;2022-09-20T16:41:57;100001.19;;;29.18;18.18
24234;BME280;12365;43.554;1.388;2022-09-20T16:44:29;100012.63;;;29.26;18.19
24234;BME280;12365;43.554;1.388;2022-09-20T16:46:55;100008.88;;;29.33;18.32
24234;BME280;12365;43.554;1.388;2022-09-20T16:49:20;100014.81;;;29.46;18.44
24234;BME280;12365;43.554;1.388;2022-09-20T16:51:47;100018.25;;;29.53;18.04
24234;BME280;12365;43.554;1.388;2022-09-20T16:54:14;100015.28;;;29.62;18.21
24234;BME280;12365;43.554;1.388;2022-09-20T16:56:49;100017.75;;;29.73;17.95
24234;BME280;12365;43.554;1.388;2022-09-20T16:59:17;100016.50;;;29.85;17.93
24234;BME280;12365;43.554;1.388;2022-09-20T17:01:43;100020.78;;;29.93;17.79
24234;BME280;12365;43.554;1.388;2022-09-20T17:04:10;100017.78;;;30.04;18.04
24234;BME280;12365;43.554;1.388;2022-09-20T17:06:38;100027.22;;;30.19;17.91
24234;BME280;12365;43.554;1.388;2022-09-20T17:09:05;100020.34;;;30.40;17.59
24234;BME280;12365;43.554;1.388;2022-09-20T17:11:39;100026.38;;;30.48;17.75
24234;BME280;12365;43.554;1.388;2022-09-20T17:14:06;100032.53;;;30.53;17.68
24234;BME280;12365;43.554;1.388;2022-09-20T17:16:34;100028.53;;;30.66;17.28
24234;BME280;12365;43.554;1.388;2022-09-20T17:19:11;100020.75;;;30.87;17.64
24234;BME280;12365;43.554;1.388;2022-09-20T17:21:39;100024.09;;;30.95;17.37
24234;BME280;12365;43.554;1.388;2022-09-20T17:24:07;100026.66;;;30.98;17.25
24234;BME280;12365;43.554;1.388;2022-09-20T17:26:35;100028.22;;;31.07;17.54
24234;BME280;12365;43.554;1.388;2022-09-20T17:29:04;100027.84;;;31.18;17.19
24234;BME280;12365;43.554;1.388;2022-09-20T17:31:38;100029.91;;;30.52;17.05
24234;BME280;12365;43.554;1.388;2022-09-20T17:34:07;100024.91;;;29.72;17.86
24234;BME280;12365;43.554;1.388;2022-09-20T17:36:36;100036.16;;;29.18;18.19
24234;BME280;12365;43.554;1.388;2022-09-20T17:39:04;100030.88;;;28.74;18.27
24234;BME280;12365;43.554;1.388;2022-09-20T17:41:31;100029.00;;;28.36;18.41
24234;BME280;12365;43.554;1.388;2022-09-20T17:43:58;100032.25;;;28.08;18.67
24234;BME280;12365;43.554;1.388;2022-09-20T17:46:27;100033.56;;;27.86;18.89
24234;BME280;12365;43.554;1.388;2022-09-20T17:48:57;100036.56;;;27.67;19.12
24234;BME280;12365;43.554;1.388;2022-09-20T17:51:29;100033.28;;;27.50;19.21
24234;BME280;12365;43.554;1.388;2022-09-20T17:53:55;100042.44;;;27.37;19.25
24234;BME280;12365;43.554;1.388;2022-09-20T17:56:21;100034.63;;;27.21;19.47
24234;BME280;12365;43.554;1.388;2022-09-20T17:58:56;100048.28;;;27.05;19.73
24234;BME280;12365;43.554;1.388;2022-09-20T18:01:22;100049.41;;;26.90;19.95
24234;BME280;12365;43.554;1.388;2022-09-20T18:03:48;100046.88;;;26.79;19.78
24234;BME280;12365;43.554;1.388;2022-09-20T18:08:57;100051.63;;;26.57;20.14
24234;BME280;12365;43.554;1.388;2022-09-20T18:11:29;100057.97;;;26.45;20.36
24234;BME280;12365;43.554;1.388;2022-09-20T18:13:56;100059.97;;;26.31;20.81
24234;BME280;12365;43.554;1.388;2022-09-20T18:16:21;100057.38;;;26.20;20.98
24234;BME280;12365;43.554;1.388;2022-09-20T18:18:47;100056.69;;;26.04;21.11
24234;BME280;12365;43.554;1.388;2022-09-20T18:21:18;100059.53;;;25.87;21.38
24234;BME280;12365;43.554;1.388;2022-09-20T18:23:45;100063.19;;;25.74;21.10
24234;BME280;12365;43.554;1.388;2022-09-20T18:26:14;100058.84;;;25.64;21.34
24234;BME280;12365;43.554;1.388;2022-09-20T18:28:58;100066.97;;;25.51;21.43
24234;BME280;12365;43.554;1.388;2022-09-20T18:33:57;100074.25;;;25.31;21.78